Time;durP1;ratioP1;P1;durP2;ratioP2;P2;SDS_P1;SDS_P2;PMS_P1;PMS_P2;Temp;Humidity;BMP_temperature;BMP_pressure;BME280_temperature;BME280_humidity;BME280_pressure;Samples;Min_cycle;Max_cycle;Signal;HPM_P1;HPM_P2
2023/09/03 06:07:41;;;;;;;1365.70;999.90;;;12.90;99.90;;;;;;5830691;24;20026;31
2023/09/03 06:23:38;;;;;;;1110.70;985.35;;;13.50;99.90;;;;;;5446797;24;20054;-89
2023/09/03 06:30:14;;;;;;;1198.32;991.88;;;13.70;99.90;;;;;;4717195;30;20387;-86
2023/09/03 06:32:52;;;;;;;1116.15;986.55;;;13.80;99.90;;;;;;4720843;30;20052;-90
2023/09/03 06:36:08;;;;;;;1087.35;971.22;;;14.10;99.90;;;;;;4730410;30;20060;-89
2023/09/03 07:31:22;;;;;;;971.90;869.40;;;16.60;99.90;;;;;;4921141;24;20066;-86
2023/09/03 07:34:13;;;;;;;791.08;710.42;;;16.60;99.90;;;;;;4805421;29;20516;-90
2023/09/03 07:44:18;;;;;;;819.95;735.53;;;16.80;99.90;;;;;;4781747;30;20072;-91
2023/09/03 09:35:28;;;;;;;930.25;846.28;;;19.20;99.90;;;;;;4678052;30;20177;-93
2023/09/03 10:52:21;;;;;;;574.83;531.72;;;21.00;99.90;;;;;;4801966;29;20249;-92
2023/09/03 11:02:48;;;;;;;470.92;433.55;;;21.10;99.90;;;;;;4797747;29;20054;-95
2023/09/03 11:06:08;;;;;;;514.75;472.70;;;21.10;99.90;;;;;;4798703;29;20116;-93
2023/09/03 11:09:06;;;;;;;531.08;488.20;;;21.10;99.90;;;;;;4743145;29;20076;-94
2023/09/03 11:12:08;;;;;;;463.33;426.00;;;21.10;99.90;;;;;;4783061;29;20050;-93
2023/09/03 11:18:30;;;;;;;;;;;;;;;;;;;;;
2023/09/03 11:21:24;;;;;;;457.88;420.38;;;21.20;99.90;;;;;;4749172;30;20063;-93
2023/09/03 11:24:45;;;;;;;438.35;402.13;;;21.20;99.90;;;;;;4743593;30;20525;-96
2023/09/03 11:27:28;;;;;;;433.60;399.33;;;21.20;99.90;;;;;;4754993;30;20051;-95
2023/09/03 11:30:26;;;;;;;518.95;476.33;;;21.30;99.90;;;;;;4725054;30;20106;-95
2023/09/03 11:33:17;;;;;;;446.80;410.30;;;21.30;99.90;;;;;;4735137;30;20047;-94
2023/09/03 11:36:05;;;;;;;674.97;621.58;;;21.30;99.90;;;;;;4769806;29;20388;-94
2023/09/03 11:38:56;;;;;;;489.23;448.25;;;21.30;99.90;;;;;;4767904;29;20055;-95
2023/09/03 11:45:18;;;;;;;;;;;;;;;;;;;;;
2023/09/03 11:48:32;;;;;;;341.20;315.08;;;21.40;99.90;;;;;;4760543;30;20052;-94
2023/09/03 11:52:02;;;;;;;412.77;379.80;;;21.40;99.90;;;;;;4767975;30;20072;-95
2023/09/03 11:54:36;;;;;;;575.22;528.00;;;21.40;99.90;;;;;;4746487;30;20520;-95
2023/09/03 11:58:32;;;;;;;597.28;548.42;;;21.50;99.90;;;;;;4776545;30;20059;-96
2023/09/03 12:01:12;;;;;;;329.85;304.58;;;21.50;99.90;;;;;;4738953;30;20053;-95
2023/09/03 12:04:00;;;;;;;496.15;455.20;;;21.60;99.90;;;;;;4754851;30;20083;-94
2023/09/03 12:07:01;;;;;;;538.42;496.02;;;21.60;99.90;;;;;;4756335;30;20083;-95
2023/09/03 12:09:38;;;;;;;544.83;498.83;;;21.70;99.90;;;;;;4671077;30;20072;-94
2023/09/03 12:12:40;;;;;;;357.65;329.45;;;21.80;99.90;;;;;;4672782;30;20096;-95
2023/09/03 12:15:34;;;;;;;390.13;360.05;;;21.90;99.90;;;;;;4768132;30;20541;-93
2023/09/03 12:18:21;;;;;;;473.95;434.65;;;21.90;99.90;;;;;;4756838;30;20055;-93
2023/09/03 12:20:52;;;;;;;400.70;368.55;;;21.80;99.90;;;;;;4753186;30;20123;-94
2023/09/03 12:23:52;;;;;;;390.42;359.33;;;21.70;99.90;;;;;;4802827;29;20046;-94
2023/09/03 12:30:24;;;;;;;621.90;570.53;;;21.80;99.90;;;;;;4748736;30;20056;-94
2023/09/03 12:32:56;;;;;;;378.30;348.90;;;22.00;99.90;;;;;;4718679;30;20411;-94
2023/09/03 12:35:22;;;;;;;447.30;410.87;;;22.20;99.90;;;;;;4734496;30;20547;-94
2023/09/03 12:38:39;;;;;;;378.25;349.40;;;22.30;99.90;;;;;;4713516;30;20055;-95
2023/09/03 12:48:15;;;;;;;;;;;;;;;;;;;;;
2023/09/03 12:54:49;;;;;;;394.38;365.05;;;21.60;99.90;;;;;;4800240;29;20061;-96
2023/09/03 12:57:41;;;;;;;421.30;389.30;;;21.70;99.90;;;;;;4775165;29;20110;-94
2023/09/03 13:00:52;;;;;;;519.85;476.70;;;21.70;99.90;;;;;;4730978;30;20057;-96
2023/09/03 13:03:39;;;;;;;470.50;431.83;;;21.80;99.90;;;;;;4714513;30;20044;-94
2023/09/03 13:06:20;;;;;;;478.80;439.13;;;22.10;99.90;;;;;;4778685;29;20505;-96
2023/09/03 13:09:10;;;;;;;477.35;437.92;;;22.30;99.90;;;;;;4770542;29;20082;-95
2023/09/03 13:11:41;;;;;;;190.48;176.98;;;22.40;99.90;;;;;;4771066;29;20050;-95
2023/09/03 13:14:15;;;;;;;132.10;123.38;;;22.50;99.90;;;;;;4769796;29;20155;-96
2023/09/03 13:17:48;;;;;;;266.67;248.50;;;22.70;99.90;;;;;;4770373;29;20119;-94
2023/09/03 13:20:13;;;;;;;299.30;278.85;;;22.60;99.90;;;;;;4789694;29;20051;-91
2023/09/03 13:22:45;;;;;;;261.65;244.05;;;22.60;99.90;;;;;;4784706;29;20119;-93
2023/09/03 13:25:11;;;;;;;350.27;324.95;;;22.50;99.90;;;;;;4764980;29;20591;-92
2023/09/03 13:27:42;;;;;;;268.77;250.52;;;22.70;99.90;;;;;;4763650;29;20257;-92
2023/09/03 13:30:11;;;;;;;200.80;187.23;;;22.80;99.90;;;;;;4778229;29;20575;-93
2023/09/03 13:32:37;;;;;;;242.88;225.52;;;22.90;99.90;;;;;;4772036;29;20055;-92
2023/09/03 13:35:03;;;;;;;319.63;294.55;;;22.70;99.90;;;;;;4786829;29;20418;-92
2023/09/03 13:37:29;;;;;;;240.68;222.50;;;22.60;99.90;;;;;;4776110;29;20154;-93
2023/09/03 13:39:58;;;;;;;206.43;192.60;;;22.40;99.90;;;;;;4798931;29;20404;-92
2023/09/03 13:42:23;;;;;;;258.70;239.73;;;22.30;99.90;;;;;;4785026;29;20065;-92
2023/09/03 13:44:55;;;;;;;182.90;170.85;;;22.20;99.90;;;;;;4782352;30;20051;-93
2023/09/03 13:47:21;;;;;;;153.05;143.07;;;22.00;99.90;;;;;;4794059;29;20062;-92
2023/09/03 13:49:46;;;;;;;232.15;216.57;;;21.90;99.90;;;;;;4784479;29;20312;-92
2023/09/03 13:52:12;;;;;;;176.30;165.00;;;21.80;99.90;;;;;;4801137;29;20057;-92
2023/09/03 13:54:41;;;;;;;131.10;122.72;;;21.70;99.90;;;;;;4785037;29;20054;-91
2023/09/03 13:57:07;;;;;;;323.67;302.13;;;21.70;99.90;;;;;;4800157;29;20134;-91
2023/09/03 13:59:34;;;;;;;215.50;201.02;;;21.70;99.90;;;;;;4785948;29;20187;-92
2023/09/03 14:02:00;;;;;;;376.33;349.60;;;21.80;99.90;;;;;;4800278;29;20066;-92
2023/09/03 14:04:26;;;;;;;324.20;302.05;;;21.80;99.90;;;;;;4785244;29;20066;-95
2023/09/03 14:06:52;;;;;;;441.45;407.60;;;21.80;99.90;;;;;;4800461;29;20142;-93
2023/09/03 14:09:18;;;;;;;410.75;380.23;;;21.80;99.90;;;;;;4801238;29;20054;-92
2023/09/03 14:11:44;;;;;;;419.92;386.88;;;21.80;99.90;;;;;;4803721;29;20509;-93
2023/09/03 14:14:10;;;;;;;395.88;365.63;;;21.80;99.90;;;;;;4798224;29;20141;-91
2023/09/03 14:16:36;;;;;;;381.35;351.77;;;21.80;99.90;;;;;;4784918;29;20132;-92
2023/09/03 14:19:02;;;;;;;475.13;435.90;;;21.70;99.90;;;;;;4796386;29;20054;-92
2023/09/03 14:21:28;;;;;;;504.48;461.85;;;21.70;99.90;;;;;;4781562;29;20555;-91
2023/09/03 14:23:54;;;;;;;508.80;466.25;;;21.70;99.90;;;;;;4800093;29;20078;-93
2023/09/03 14:26:19;;;;;;;523.90;481.05;;;21.70;99.90;;;;;;4783051;29;20129;-92
2023/09/03 14:28:46;;;;;;;384.75;353.90;;;21.70;99.90;;;;;;4789545;29;20104;-93
2023/09/03 14:31:15;;;;;;;434.90;399.05;;;21.70;99.90;;;;;;4799830;29;20527;-93
2023/09/03 14:33:40;;;;;;;383.15;352.95;;;21.70;99.90;;;;;;4781218;29;20074;-93
2023/09/03 14:36:09;;;;;;;435.75;401.13;;;21.70;99.90;;;;;;4785312;29;20476;-92
2023/09/03 14:38:35;;;;;;;615.53;566.30;;;21.80;99.90;;;;;;4800577;29;20053;-92
2023/09/03 14:41:00;;;;;;;533.08;490.67;;;21.90;99.90;;;;;;4783206;29;20515;-91
2023/09/03 14:43:26;;;;;;;478.70;440.73;;;22.00;99.90;;;;;;4784365;29;20115;-92
2023/09/03 14:45:52;;;;;;;604.83;556.40;;;22.00;99.90;;;;;;4778339;29;20580;-92
2023/09/03 14:48:18;;;;;;;426.23;392.27;;;22.00;99.90;;;;;;4792572;29;20043;-91
2023/09/03 14:50:49;;;;;;;301.13;278.63;;;22.00;99.90;;;;;;4791986;29;20496;-93
2023/09/03 14:53:15;;;;;;;348.83;321.90;;;21.90;99.90;;;;;;4779728;29;20089;-92
2023/09/03 14:55:43;;;;;;;379.45;350.13;;;21.80;99.90;;;;;;4793653;29;20111;-91
2023/09/03 14:58:13;;;;;;;417.92;385.20;;;21.70;99.90;;;;;;4772985;30;20043;-92
2023/09/03 15:00:46;;;;;;;356.58;330.52;;;21.80;99.90;;;;;;4792986;29;20123;-93
2023/09/03 15:03:16;;;;;;;343.85;317.25;;;21.60;99.90;;;;;;4803830;29;20059;-94
2023/09/03 15:05:44;;;;;;;371.67;342.60;;;21.60;99.90;;;;;;4803255;29;20161;-93
2023/09/03 15:08:13;;;;;;;338.92;312.30;;;21.50;99.90;;;;;;4799281;29;20168;-93
2023/09/03 15:10:55;;;;;;;312.83;288.63;;;21.50;99.90;;;;;;4792846;29;20082;-95
2023/09/03 15:13:28;;;;;;;723.67;660.20;;;21.50;99.90;;;;;;4800444;29;20114;-94
2023/09/03 15:16:03;;;;;;;776.83;710.90;;;21.50;99.90;;;;;;4777161;29;20166;-94
2023/09/03 15:18:49;;;;;;;332.40;305.70;;;21.50;99.90;;;;;;4793845;29;20181;-93
2023/09/03 15:21:22;;;;;;;492.75;452.35;;;21.40;99.90;;;;;;4782877;29;20070;-93
2023/09/03 15:24:03;;;;;;;486.08;445.40;;;21.40;99.90;;;;;;4798678;29;20050;-92
2023/09/03 15:26:48;;;;;;;651.75;600.78;;;21.30;99.90;;;;;;4785422;29;20042;-93
2023/09/03 15:29:28;;;;;;;671.92;620.65;;;21.30;99.90;;;;;;4799053;29;20054;-92
2023/09/03 15:32:05;;;;;;;730.10;672.75;;;21.10;99.90;;;;;;4783868;29;20093;-93
2023/09/03 15:34:31;;;;;;;803.55;736.90;;;21.30;99.90;;;;;;4799704;29;20065;-94
2023/09/03 15:37:06;;;;;;;650.05;599.90;;;21.30;99.90;;;;;;4806398;29;20059;-92
2023/09/03 15:40:03;;;;;;;604.47;557.27;;;21.40;99.90;;;;;;4798132;29;20493;-95
2023/09/03 15:42:43;;;;;;;908.88;821.95;;;21.40;99.90;;;;;;4801606;29;20303;-93
2023/09/03 15:45:12;;;;;;;887.88;807.78;;;21.40;99.90;;;;;;4788429;29;20114;-94
2023/09/03 15:47:41;;;;;;;930.90;843.22;;;21.50;99.90;;;;;;4784820;29;20100;-92
2023/09/03 15:50:21;;;;;;;701.85;644.92;;;21.60;99.90;;;;;;4775672;30;20519;-92
2023/09/03 15:53:00;;;;;;;813.65;743.13;;;21.70;99.90;;;;;;4783142;29;20054;-92
2023/09/03 15:55:28;;;;;;;623.10;575.05;;;21.90;99.90;;;;;;4800000;29;20051;-92
2023/09/03 15:58:05;;;;;;;536.53;494.25;;;21.90;99.90;;;;;;4786378;29;20496;-92
2023/09/03 16:00:38;;;;;;;503.98;463.38;;;21.90;99.90;;;;;;4785794;29;20115;-93
2023/09/03 16:03:09;;;;;;;456.77;420.73;;;21.90;99.90;;;;;;4786697;29;20165;-91
2023/09/03 16:05:45;;;;;;;352.23;324.33;;;21.80;99.90;;;;;;4801068;29;20110;-94
2023/09/03 16:08:49;;;;;;;673.50;622.25;;;21.80;99.90;;;;;;4785777;29;20563;-92
2023/09/03 16:11:30;;;;;;;494.73;456.95;;;21.80;99.90;;;;;;4801127;29;20042;-94
2023/09/03 16:14:16;;;;;;;503.92;464.40;;;21.70;99.90;;;;;;4802708;29;20512;-93
2023/09/03 16:16:55;;;;;;;541.00;499.35;;;21.70;99.90;;;;;;4800480;29;20043;-96
2023/09/03 16:19:29;;;;;;;569.03;524.05;;;21.70;99.90;;;;;;4802127;29;20408;-96
2023/09/03 16:22:05;;;;;;;600.83;554.55;;;21.70;99.90;;;;;;4781914;29;20067;-92
2023/09/03 16:25:21;;;;;;;465.08;428.63;;;21.70;99.90;;;;;;4800931;29;20137;-93
2023/09/03 16:28:11;;;;;;;577.05;532.30;;;21.80;99.90;;;;;;4800619;29;20065;-94
2023/09/03 16:30:55;;;;;;;503.23;462.75;;;21.80;99.90;;;;;;4799919;29;20131;-93
2023/09/03 16:33:39;;;;;;;565.80;521.50;;;22.10;99.90;;;;;;4792453;29;20046;-96
2023/09/03 16:36:46;;;;;;;541.10;496.88;;;21.90;99.90;;;;;;4792931;29;20508;-94
2023/09/03 16:39:38;;;;;;;466.98;428.92;;;22.00;99.90;;;;;;4800146;29;20047;-93
2023/09/03 16:42:12;;;;;;;408.08;375.40;;;22.00;99.90;;;;;;4800808;29;20386;-93
2023/09/03 16:44:49;;;;;;;374.40;344.70;;;22.10;99.90;;;;;;4800120;29;20054;-92
2023/09/03 16:48:01;;;;;;;438.13;402.63;;;22.00;99.90;;;;;;4794109;29;20111;-92
2023/09/03 16:50:44;;;;;;;450.52;413.30;;;22.00;99.90;;;;;;4779727;29;20061;-93
2023/09/03 16:53:18;;;;;;;541.30;499.13;;;22.10;99.90;;;;;;4803606;29;20100;-92
2023/09/03 16:55:59;;;;;;;507.75;466.30;;;22.20;99.90;;;;;;4783247;29;20130;-91
2023/09/03 16:58:52;;;;;;;462.48;424.05;;;22.30;99.90;;;;;;4804376;29;20070;-93
2023/09/03 17:01:20;;;;;;;421.35;388.42;;;22.20;99.90;;;;;;4784964;29;20050;-93
2023/09/03 17:04:20;;;;;;;391.80;361.10;;;22.20;99.90;;;;;;4802810;29;20123;-92
2023/09/03 17:06:58;;;;;;;437.20;404.50;;;22.00;99.90;;;;;;4783880;29;20058;-93
2023/09/03 17:09:55;;;;;;;450.33;415.95;;;21.90;99.90;;;;;;4809132;29;20454;-95
2023/09/03 17:12:36;;;;;;;380.30;351.67;;;21.80;99.90;;;;;;4805938;29;20078;-96
2023/09/03 17:15:08;;;;;;;195.77;181.35;;;21.70;99.90;;;;;;4801639;29;20069;-94
2023/09/03 17:17:34;;;;;;;427.27;392.42;;;21.60;99.90;;;;;;4789457;29;20054;-95
2023/09/03 17:20:01;;;;;;;523.10;478.50;;;21.50;99.90;;;;;;4788592;29;20047;-96
2023/09/03 17:22:55;;;;;;;499.58;457.50;;;21.40;99.90;;;;;;4805829;29;20130;-96
2023/09/03 17:25:36;;;;;;;567.70;519.65;;;21.40;99.90;;;;;;4777555;30;20097;-93
2023/09/03 17:28:08;;;;;;;535.83;490.33;;;21.20;99.90;;;;;;4803752;29;20047;-92
2023/09/03 17:30:37;;;;;;;259.33;240.93;;;21.20;99.90;;;;;;4781535;29;20123;-92
2023/09/03 17:33:31;;;;;;;320.85;296.60;;;21.20;99.90;;;;;;4783427;29;20055;-92
2023/09/03 17:36:09;;;;;;;532.60;486.80;;;21.00;99.90;;;;;;4798149;29;20063;-92
2023/09/03 17:39:20;;;;;;;458.58;421.95;;;20.90;99.90;;;;;;4804069;29;20139;-93
2023/09/03 17:41:49;;;;;;;322.08;298.42;;;20.80;99.90;;;;;;4794993;29;20130;-94
2023/09/03 17:44:17;;;;;;;223.60;207.52;;;20.70;99.90;;;;;;4804455;29;20591;-92
2023/09/03 17:47:05;;;;;;;228.73;211.18;;;20.60;99.90;;;;;;4790264;29;20501;-93
2023/09/03 17:52:14;;;;;;;597.78;540.95;;;20.30;99.90;;;;;;4823257;29;20070;-93
2023/09/03 17:55:10;;;;;;;774.47;698.63;;;20.20;99.90;;;;;;4822592;29;20049;-92
2023/09/03 17:57:36;;;;;;;671.03;604.05;;;20.10;99.90;;;;;;4820274;29;20158;-92
2023/09/03 18:00:17;;;;;;;879.33;800.92;;;20.00;99.90;;;;;;4805703;29;20053;-92
2023/09/03 18:02:46;;;;;;;897.13;818.47;;;19.90;99.90;;;;;;4804827;29;20595;-91
2023/09/03 18:05:20;;;;;;;869.58;791.55;;;19.60;99.90;;;;;;4820982;29;20108;-96
2023/09/03 18:07:57;;;;;;;711.58;646.88;;;19.70;99.90;;;;;;4805448;29;20058;-90
2023/09/03 19:46:45;;;;;;;782.22;711.90;;;17.40;99.90;;;;;;4819892;29;20047;-89
2023/09/03 23:56:03;;;;;;;1156.93;985.60;;;14.00;99.90;;;;;;4686697;30;20060;-90
